Time;durP1;ratioP1;P1;durP2;ratioP2;P2;SDS_P1;SDS_P2;PMS_P1;PMS_P2;Temp;Humidity;BMP_temperature;BMP_pressure;BME280_temperature;BME280_humidity;BME280_pressure;Samples;Min_cycle;Max_cycle;Signal;HPM_P1;HPM_P2
2022/04/16 00:00:15;;;;;;;13.70;8.93;;;;;;;;;;5077589;28;20192;-84
2022/04/16 00:02:41;;;;;;;14.73;8.93;;;;;;;;;;5096184;28;20178;-83
2022/04/16 00:05:07;;;;;;;14.03;9.63;;;8.70;99.90;;;;;;5077784;28;20240;-82
2022/04/16 00:07:33;;;;;;;20.67;11.40;;;;;;;;;;5044777;28;20585;-84
2022/04/16 00:09:59;;;;;;;18.80;9.63;;;;;;;;;;5077618;28;20178;-83
2022/04/16 00:12:27;;;;;;;17.67;9.40;;;;;;;;;;5095180;28;20174;-85
2022/04/16 00:14:54;;;;;;;21.40;11.77;;;;;;;;;;5095367;28;20171;-85
2022/04/16 00:17:20;;;;;;;20.57;10.87;;;;;;;;;;5077135;28;20685;-84
2022/04/16 00:19:46;;;;;;;18.93;10.30;;;8.30;99.90;;;;;;5064004;28;20288;-82
2022/04/16 00:22:12;;;;;;;18.87;9.17;;;;;;;;;;5092776;28;20658;-83
2022/04/16 00:24:42;;;;;;;16.67;9.00;;;8.20;99.90;;;;;;5077807;28;20231;-83
2022/04/16 00:27:11;;;;;;;16.33;9.10;;;8.30;99.90;;;;;;5077618;28;20221;-82
2022/04/16 00:29:38;;;;;;;17.03;9.20;;;;;;;;;;5077423;28;20174;-83
2022/04/16 00:32:07;;;;;;;16.50;9.17;;;8.30;99.90;;;;;;5077560;28;20181;-82
2022/04/16 00:34:33;;;;;;;17.97;10.10;;;;;;;;;;5060720;28;20232;-83
2022/04/16 00:36:59;;;;;;;20.37;9.90;;;;;;;;;;5077107;28;20179;-83
2022/04/16 00:39:26;;;;;;;17.63;9.07;;;;;;;;;;5095040;28;20186;-83
2022/04/16 00:41:52;;;;;;;17.87;9.90;;;;;;;;;;5095486;28;20674;-83
2022/04/16 00:44:19;;;;;;;15.40;8.73;;;;;;;;;;5076984;28;20210;-83
2022/04/16 00:46:49;;;;;;;16.13;9.07;;;8.20;99.90;;;;;;5077266;28;20174;-83
2022/04/16 00:49:15;;;;;;;17.13;9.00;;;;;;;;;;5095265;28;20201;-83
2022/04/16 00:51:45;;;;;;;12.47;8.40;;;8.20;99.90;;;;;;5077167;28;20269;-83
2022/04/16 00:54:12;;;;;;;17.13;8.97;;;;;;;;;;5077147;28;20531;-82
2022/04/16 00:56:38;;;;;;;15.33;9.97;;;;;;;;;;5095106;28;20220;-83
2022/04/16 00:59:04;;;;;;;16.87;9.77;;;;;;;;;;5094643;28;20251;-83
2022/04/16 01:01:31;;;;;;;16.80;8.37;;;8.00;99.90;;;;;;5076549;28;20277;-83
2022/04/16 01:03:57;;;;;;;13.70;9.17;;;;;;;;;;5060073;28;20186;-83
2022/04/16 01:06:23;;;;;;;12.47;8.40;;;7.80;99.90;;;;;;5077309;28;20174;-83
2022/04/16 01:08:49;;;;;;;10.43;7.23;;;;;;;;;;5076879;28;20566;-83
2022/04/16 01:11:15;;;;;;;11.60;7.57;;;7.90;99.90;;;;;;5076619;28;20269;-83
2022/04/16 01:13:45;;;;;;;11.73;7.93;;;;;;;;;;5059673;28;20192;-83
2022/04/16 01:16:12;;;;;;;7.77;5.63;;;;;;;;;;5060551;28;20182;-84
2022/04/16 01:21:50;;;;;;;9.23;7.50;;;;;;;;;;5093687;28;20206;-83
2022/04/16 01:24:16;;;;;;;11.17;7.20;;;;;;;;;;5061535;28;20182;-83
2022/04/16 01:26:42;;;;;;;10.47;6.87;;;;;;;;;;5094167;28;20182;-83
2022/04/16 01:29:11;;;;;;;7.77;6.57;;;7.40;99.90;;;;;;5075822;28;20183;-83
2022/04/16 01:31:37;;;;;;;10.40;6.90;;;;;;;;;;5094246;28;20251;-83
2022/04/16 01:34:03;;;;;;;8.83;6.23;;;;;;;;;;5059691;28;20303;-83
2022/04/16 01:36:31;;;;;;;7.60;6.07;;;;;;;;;;5094182;28;20238;-84
2022/04/16 01:38:57;;;;;;;12.43;6.73;;;;;;;;;;5059816;28;20210;-83
2022/04/16 01:41:27;;;;;;;11.27;6.70;;;7.30;99.90;;;;;;5094197;28;20183;-84
2022/04/16 01:43:54;;;;;;;11.47;6.60;;;;;;;;;;5094252;28;20170;-83
2022/04/16 01:46:20;;;;;;;8.63;6.17;;;7.20;99.90;;;;;;5076798;28;20186;-83
2022/04/16 01:48:47;;;;;;;10.83;6.73;;;;;;;;;;5093941;28;20183;-83
2022/04/16 01:51:17;;;;;;;9.93;7.10;;;;;;;;;;5059550;28;20182;-83
2022/04/16 01:53:44;;;;;;;8.70;6.50;;;;;;;;;;5076037;28;20179;-82
2022/04/16 01:56:10;;;;;;;12.00;6.90;;;;;;;;;;5059454;28;20210;-83
2022/04/16 01:58:39;;;;;;;9.90;7.33;;;;;;;;;;5094319;28;20241;-82
2022/04/16 02:01:05;;;;;;;8.87;6.43;;;7.10;99.90;;;;;;5059849;28;20190;-83
2022/04/16 02:03:32;;;;;;;10.27;7.30;;;7.10;99.90;;;;;;5094873;28;20178;-84
2022/04/16 02:05:58;;;;;;;10.40;7.80;;;;;;;;;;5094073;28;20193;-83
2022/04/16 02:08:24;;;;;;;11.47;7.60;;;;;;;;;;5094347;28;20205;-82
2022/04/16 02:10:50;;;;;;;10.63;8.97;;;;;;;;;;5094071;28;20179;-83
2022/04/16 02:13:15;;;;;;;10.77;8.47;;;6.70;99.90;;;;;;5075622;28;20186;-83
2022/04/16 02:15:41;;;;;;;11.57;8.97;;;;;;;;;;5094348;28;20193;-82
2022/04/16 02:18:07;;;;;;;11.00;7.87;;;6.90;99.90;;;;;;5089110;28;20273;-83
2022/04/16 02:20:36;;;;;;;9.33;7.87;;;;;;;;;;5101352;28;20225;-81
2022/04/16 02:23:02;;;;;;;11.13;8.40;;;;;;;;;;5075978;28;20232;-84
2022/04/16 02:25:28;;;;;;;10.43;7.47;;;;;;;;;;5075267;28;20315;-85
2022/04/16 02:27:54;;;;;;;10.00;7.17;;;;;;;;;;5077694;28;20182;-84
2022/04/16 02:30:20;;;;;;;12.73;7.47;;;;;;;;;;5074915;28;20190;-83
2022/04/16 02:32:52;;;;;;;9.20;6.83;;;6.20;99.90;;;;;;5093305;28;20204;-85
2022/04/16 02:35:18;;;;;;;8.47;7.03;;;;;;;;;;5103433;28;20261;-83
2022/04/16 02:37:44;;;;;;;8.33;6.63;;;;;;;;;;5079369;28;20198;-83
2022/04/16 02:40:11;;;;;;;8.13;6.83;;;;;;;;;;5097621;28;20182;-83
2022/04/16 02:42:37;;;;;;;9.60;7.73;;;;;;;;;;5062816;28;20526;-85
2022/04/16 02:47:49;;;;;;;8.43;6.43;;;;;;;;;;5097355;28;20266;-83
2022/04/16 02:50:15;;;;;;;8.63;6.53;;;;;;;;;;5097795;28;20200;-83
2022/04/16 02:52:45;;;;;;;6.97;5.90;;;;;;;;;;5097065;28;20231;-82
2022/04/16 02:55:11;;;;;;;6.97;5.43;;;;;;;;;;5097221;28;20178;-83
2022/04/16 02:57:36;;;;;;;6.60;4.67;;;6.20;99.90;;;;;;5078989;28;20300;-83
2022/04/16 03:00:03;;;;;;;5.30;4.13;;;;;;;;;;5045994;28;20518;-83
2022/04/16 03:02:29;;;;;;;4.60;4.13;;;;;;;;;;5079014;28;20280;-83
2022/04/16 03:04:55;;;;;;;7.93;4.43;;;;;;;;;;5062287;28;20286;-83
2022/04/16 03:07:21;;;;;;;4.93;3.97;;;;;;;;;;5079195;28;20187;-83
2022/04/16 03:09:46;;;;;;;12.57;4.27;;;6.60;99.90;;;;;;5096639;28;20174;-83
2022/04/16 03:12:12;;;;;;;3.33;2.93;;;;;;;;;;5062135;28;20631;-83
2022/04/16 03:17:32;;;;;;;4.00;2.77;;;;;;;;;;5081327;28;20221;-83
2022/04/16 03:19:58;;;;;;;4.10;2.93;;;6.50;99.90;;;;;;5078680;28;20181;-83
2022/04/16 03:22:24;;;;;;;3.27;2.53;;;;;;;;;;5070415;28;20267;-84
2022/04/16 03:24:51;;;;;;;2.70;2.50;;;6.40;99.90;;;;;;5098575;28;20210;-83
2022/04/16 03:27:17;;;;;;;4.80;2.67;;;;;;;;;;5117087;28;20178;-83
2022/04/16 03:29:43;;;;;;;2.77;2.50;;;;;;;;;;5095514;28;20238;-83
2022/04/16 03:32:09;;;;;;;4.23;3.30;;;;;;;;;;5116479;28;20265;-84
2022/04/16 03:34:37;;;;;;;6.10;3.10;;;;;;;;;;5085434;28;20186;-83
2022/04/16 03:37:03;;;;;;;3.70;3.40;;;;;;;;;;5117093;28;20174;-83
2022/04/16 03:39:29;;;;;;;3.70;3.33;;;;;;;;;;5117155;28;20280;-82
2022/04/16 03:41:55;;;;;;;3.67;3.37;;;;;;;;;;5102382;28;20643;-83
2022/04/16 03:44:21;;;;;;;4.03;3.67;;;;;;;;;;5095443;28;20669;-84
2022/04/16 03:46:47;;;;;;;3.40;3.10;;;;;;;;;;5060252;28;20191;-82
2022/04/16 03:49:13;;;;;;;4.00;3.40;;;6.30;99.90;;;;;;5077593;28;20599;-84
2022/04/16 03:51:39;;;;;;;4.33;3.43;;;;;;;;;;5110332;28;20189;-91
2022/04/16 04:02:18;;;;;;;4.53;3.00;;;;;;;;;;5101503;28;20215;-83
2022/04/16 04:04:44;;;;;;;3.67;2.90;;;6.20;99.90;;;;;;5098825;28;20178;-83
2022/04/16 04:07:10;;;;;;;6.27;3.80;;;;;;;;;;5081733;28;20588;-82
2022/04/16 04:09:38;;;;;;;6.47;4.60;;;;;;;;;;5081559;28;20280;-82
2022/04/16 04:12:09;;;;;;;4.63;3.93;;;6.10;99.90;;;;;;5116617;28;20231;-82
2022/04/16 04:14:38;;;;;;;3.90;3.60;;;5.70;99.90;;;;;;5107399;28;20181;-82
2022/04/16 04:17:06;;;;;;;5.40;3.67;;;5.60;99.90;;;;;;5110982;28;20676;-82
2022/04/16 04:19:32;;;;;;;3.70;3.07;;;;;;;;;;5118472;28;20280;-84
2022/04/16 04:21:58;;;;;;;3.30;3.00;;;;;;;;;;5098297;28;20277;-82
2022/04/16 04:24:24;;;;;;;4.47;2.87;;;;;;;;;;5098498;28;20224;-82
2022/04/16 04:26:53;;;;;;;3.10;2.83;;;5.40;99.90;;;;;;5098113;28;20631;-82
2022/04/16 04:29:19;;;;;;;4.03;3.10;;;;;;;;;;5116436;28;20189;-81
2022/04/16 04:31:45;;;;;;;4.83;3.03;;;5.40;99.90;;;;;;5116643;28;20178;-82
2022/04/16 04:34:11;;;;;;;2.93;2.63;;;;;;;;;;5116153;28;20653;-82
2022/04/16 04:36:37;;;;;;;3.20;2.90;;;;;;;;;;5098039;28;20645;-82
2022/04/16 04:39:02;;;;;;;4.07;3.63;;;5.20;99.90;;;;;;5116051;28;20292;-83
2022/04/16 04:41:28;;;;;;;3.67;3.17;;;;;;;;;;5115982;28;20177;-82
2022/04/16 04:43:54;;;;;;;5.53;3.40;;;;;;;;;;5081004;28;20228;-83
2022/04/16 04:46:20;;;;;;;4.27;3.87;;;;;;;;;;5097404;28;20225;-82
2022/04/16 04:48:46;;;;;;;4.17;3.77;;;;;;;;;;5115904;28;20181;-83
2022/04/16 04:51:12;;;;;;;4.77;3.13;;;;;;;;;;5097536;28;20186;-82
2022/04/16 04:53:38;;;;;;;4.10;2.87;;;;;;;;;;5097568;28;20719;-84
2022/04/16 04:56:04;;;;;;;3.93;2.93;;;5.20;99.90;;;;;;5080392;28;20205;-84
2022/04/16 04:58:31;;;;;;;3.23;2.90;;;5.30;99.90;;;;;;5114933;28;20669;-86
2022/04/16 05:00:57;;;;;;;3.13;2.57;;;;;;;;;;5063175;28;20272;-86
2022/04/16 05:03:23;;;;;;;3.00;2.70;;;;;;;;;;5075039;28;20205;-86
2022/04/16 05:05:49;;;;;;;3.70;3.07;;;;;;;;;;5080734;28;20221;-88
2022/04/16 05:08:15;;;;;;;4.07;3.10;;;;;;;;;;5061342;28;20182;-87
2022/04/16 05:10:41;;;;;;;3.40;3.03;;;;;;;;;;5073472;28;20209;-86
2022/04/16 05:13:07;;;;;;;6.67;3.33;;;;;;;;;;5070324;28;20209;-89
2022/04/16 05:15:33;;;;;;;14.83;7.83;;;;;;;;;;5077374;28;20204;-85
2022/04/16 05:17:59;;;;;;;5.90;3.87;;;;;;;;;;5063236;28;20261;-87
2022/04/16 05:20:25;;;;;;;5.27;3.40;;;;;;;;;;5073373;28;20323;-86
2022/04/16 05:22:51;;;;;;;4.90;4.40;;;;;;;;;;5053621;28;20937;-87
2022/04/16 05:25:17;;;;;;;4.83;3.80;;;;;;;;;;5074546;28;20179;-86
2022/04/16 05:27:45;;;;;;;5.37;3.83;;;;;;;;;;5076408;28;20188;-86
2022/04/16 05:30:13;;;;;;;5.53;4.07;;;;;;;;;;5095036;28;20220;-86
2022/04/16 05:32:42;;;;;;;18.77;9.33;;;5.60;99.90;;;;;;5054550;28;20207;-85
2022/04/16 05:35:09;;;;;;;8.27;4.63;;;5.20;99.90;;;;;;5061230;28;20207;-86
2022/04/16 05:37:36;;;;;;;10.20;5.30;;;;;;;;;;5080937;28;20199;-84
2022/04/16 05:40:06;;;;;;;5.80;4.80;;;5.30;99.90;;;;;;5068270;28;20191;-83
2022/04/16 05:42:32;;;;;;;7.80;4.40;;;;;;;;;;5057012;28;20176;-83
2022/04/16 05:45:02;;;;;;;5.97;4.80;;;5.20;99.90;;;;;;5075603;28;20187;-83
2022/04/16 05:47:29;;;;;;;6.33;4.37;;;;;;;;;;5066935;28;20195;-81
2022/04/16 05:49:55;;;;;;;7.33;5.23;;;;;;;;;;5062184;28;20183;-82
2022/04/16 05:52:22;;;;;;;7.10;5.77;;;5.20;99.90;;;;;;5081842;28;20182;-80
2022/04/16 05:55:11;;;;;;;6.63;5.17;;;5.20;99.90;;;;;;5097041;28;20166;-81
2022/04/16 05:57:37;;;;;;;7.23;4.73;;;;;;;;;;5114699;28;20280;-82
2022/04/16 06:00:04;;;;;;;6.73;4.63;;;5.10;99.90;;;;;;5115359;28;20624;-82
2022/04/16 06:02:51;;;;;;;7.50;5.67;;;5.00;99.90;;;;;;5073341;28;20194;-82
2022/04/16 06:05:37;;;;;;;8.23;5.77;;;4.70;99.90;;;;;;5090126;28;20269;-83
2022/04/16 06:08:03;;;;;;;8.23;4.90;;;4.90;99.90;;;;;;5092536;28;20154;-82
2022/04/16 06:10:29;;;;;;;7.70;5.27;;;4.60;99.90;;;;;;5060782;28;20613;-82
2022/04/16 06:12:55;;;;;;;7.80;5.47;;;;;;;;;;5083475;28;20239;-82
2022/04/16 06:15:22;;;;;;;7.50;5.20;;;4.80;99.90;;;;;;5092499;28;20936;-84
2022/04/16 06:21:38;;;;;;;10.23;6.27;;;;;;;;;;5086953;28;20193;-84
2022/04/16 06:24:04;;;;;;;6.90;5.53;;;;;;;;;;5067014;28;20669;-85
2022/04/16 06:26:30;;;;;;;7.70;5.50;;;;;;;;;;5064979;28;20197;-82
2022/04/16 06:28:56;;;;;;;8.87;5.60;;;5.20;99.90;;;;;;5074999;28;20179;-84
2022/04/16 06:31:23;;;;;;;6.43;4.37;;;;;;;;;;5062954;28;20179;-85
2022/04/16 06:33:49;;;;;;;7.97;5.17;;;;;;;;;;5065603;28;20190;-83
2022/04/16 06:36:15;;;;;;;7.07;4.83;;;;;;;;;;5058212;28;20197;-83
2022/04/16 06:38:41;;;;;;;6.60;4.67;;;4.60;99.90;;;;;;5083553;28;20255;-84
2022/04/16 06:41:08;;;;;;;7.33;5.27;;;;;;;;;;5059260;28;20319;-81
2022/04/16 06:43:34;;;;;;;7.27;5.00;;;;;;;;;;5094543;28;20220;-82
2022/04/16 06:45:59;;;;;;;5.63;4.17;;;5.00;99.90;;;;;;5056477;28;20280;-82
2022/04/16 06:48:25;;;;;;;15.97;9.53;;;5.20;99.90;;;;;;5056064;28;20183;-83
2022/04/16 06:50:51;;;;;;;6.20;4.60;;;;;;;;;;5056866;28;20187;-82
2022/04/16 06:53:17;;;;;;;6.67;5.13;;;;;;;;;;5074194;28;20649;-82
2022/04/16 06:55:43;;;;;;;7.13;5.47;;;;;;;;;;5064402;28;20619;-82
2022/04/16 06:58:09;;;;;;;6.47;5.17;;;;;;;;;;5063140;28;20263;-85
2022/04/16 07:00:35;;;;;;;8.43;5.43;;;;;;;;;;5085605;28;20201;-84
2022/04/16 07:03:01;;;;;;;8.30;5.90;;;;;;;;;;5059792;28;20668;-85
2022/04/16 07:05:27;;;;;;;7.67;5.73;;;;;;;;;;5060733;28;20206;-84
2022/04/16 07:07:53;;;;;;;7.67;5.73;;;;;;;;;;5077689;28;20197;-85
2022/04/16 07:10:19;;;;;;;5.80;4.80;;;;;;;;;;5063941;28;20171;-85
2022/04/16 07:12:45;;;;;;;10.37;7.47;;;;;;;;;;5084570;28;20209;-85
2022/04/16 07:15:11;;;;;;;10.13;5.40;;;;;;;;;;5060507;28;20183;-86
2022/04/16 07:17:37;;;;;;;13.33;6.20;;;5.00;99.90;;;;;;5064142;28;20287;-83
2022/04/16 07:20:03;;;;;;;9.70;6.43;;;;;;;;;;5079165;28;20547;-82
2022/04/16 07:22:29;;;;;;;8.17;5.13;;;;;;;;;;5069546;28;20597;-82
2022/04/16 07:24:55;;;;;;;7.43;5.37;;;;;;;;;;5065140;28;20222;-84
2022/04/16 07:27:21;;;;;;;7.17;5.40;;;;;;;;;;5066801;28;20652;-84
2022/04/16 07:29:48;;;;;;;8.50;5.73;;;;;;;;;;5089625;28;20551;-82
2022/04/16 07:32:14;;;;;;;11.63;6.03;;;;;;;;;;5067114;28;20186;-87
2022/04/16 07:34:39;;;;;;;7.80;5.07;;;5.20;99.90;;;;;;5065499;28;20261;-80
2022/04/16 07:37:06;;;;;;;7.67;5.20;;;;;;;;;;5075773;28;20584;-83
2022/04/16 07:39:32;;;;;;;9.67;4.93;;;;;;;;;;5078080;28;20196;-82
2022/04/16 07:41:58;;;;;;;9.03;5.00;;;;;;;;;;5091033;28;20183;-85
2022/04/16 07:44:24;;;;;;;8.57;5.10;;;;;;;;;;5060714;28;20639;-84
2022/04/16 07:46:50;;;;;;;9.17;6.30;;;;;;;;;;5073262;28;20808;-84
2022/04/16 07:49:17;;;;;;;8.23;4.97;;;;;;;;;;5065083;28;20191;-84
2022/04/16 07:51:45;;;;;;;7.53;4.47;;;;;;;;;;5090672;28;20183;-89
2022/04/16 07:54:11;;;;;;;8.77;4.50;;;;;;;;;;5071273;28;20182;-84
2022/04/16 07:56:37;;;;;;;5.00;3.67;;;;;;;;;;5067609;28;20194;-84
2022/04/16 07:59:03;;;;;;;5.90;4.07;;;;;;;;;;5054475;28;20202;-82
2022/04/16 08:01:29;;;;;;;7.30;4.10;;;;;;;;;;5083970;28;20601;-89
2022/04/16 08:03:56;;;;;;;8.17;4.10;;;;;;;;;;5065829;28;20179;-85
2022/04/16 08:06:22;;;;;;;4.67;3.00;;;;;;;;;;5066667;28;20179;-85
2022/04/16 08:08:48;;;;;;;4.50;3.50;;;;;;;;;;5072893;28;20205;-85
2022/04/16 08:11:14;;;;;;;6.20;3.30;;;;;;;;;;5086811;28;20282;-85
2022/04/16 08:13:40;;;;;;;5.33;3.77;;;;;;;;;;5072435;28;20230;-84
2022/04/16 08:16:06;;;;;;;6.57;3.93;;;;;;;;;;5070652;28;20186;-84
2022/04/16 08:18:32;;;;;;;4.00;3.10;;;;;;;;;;5086010;28;20246;-85
2022/04/16 08:20:58;;;;;;;5.10;3.27;;;;;;;;;;5080062;28;20648;-85
2022/04/16 08:23:26;;;;;;;4.20;3.07;;;;;;;;;;5091610;28;20272;-86
2022/04/16 08:25:52;;;;;;;3.53;2.67;;;;;;;;;;5064423;28;20213;-84
2022/04/16 08:28:18;;;;;;;3.27;2.73;;;6.30;99.90;;;;;;5086760;28;20179;-83
2022/04/16 08:30:44;;;;;;;5.40;3.53;;;6.00;99.90;;;;;;5085975;28;20194;-83
2022/04/16 08:33:16;;;;;;;5.03;3.00;;;6.40;99.90;;;;;;5090514;28;20190;-86
2022/04/16 08:35:43;;;;;;;3.73;2.70;;;;;;;;;;5055920;28;20191;-86
2022/04/16 08:38:09;;;;;;;5.97;3.20;;;;;;;;;;5044592;28;20210;-86
2022/04/16 08:40:35;;;;;;;4.60;2.57;;;;;;;;;;5088665;28;20186;-87
2022/04/16 08:43:09;;;;;;;4.93;2.50;;;6.70;99.90;;;;;;5085530;28;20262;-82
2022/04/16 08:45:37;;;;;;;3.80;2.37;;;7.10;99.90;;;;;;5087121;28;20183;-83
2022/04/16 08:48:03;;;;;;;3.00;2.30;;;;;;;;;;5067360;28;20177;-82
2022/04/16 08:50:30;;;;;;;2.50;2.20;;;;;;;;;;5070389;28;20228;-86
2022/04/16 08:52:57;;;;;;;3.40;2.60;;;7.00;99.90;;;;;;5063420;28;20812;-84
2022/04/16 08:55:23;;;;;;;5.17;2.87;;;;;;;;;;5062999;28;20206;-82
2022/04/16 08:57:49;;;;;;;4.43;2.47;;;;;;;;;;5060725;28;20235;-83
2022/04/16 09:00:16;;;;;;;5.03;3.13;;;7.30;99.90;;;;;;5088022;28;20675;-84
2022/04/16 09:03:03;;;;;;;4.80;3.70;;;7.50;99.90;;;;;;5077768;28;20188;-83
2022/04/16 09:05:29;;;;;;;4.90;3.13;;;;;;;;;;5088219;28;20208;-82
2022/04/16 09:07:57;;;;;;;3.73;2.70;;;7.00;99.90;;;;;;5073352;28;20195;-85
2022/04/16 09:10:30;;;;;;;5.73;3.23;;;6.90;99.90;;;;;;5082832;28;20194;-83
2022/04/16 09:12:58;;;;;;;5.17;2.97;;;6.50;99.90;;;;;;5085435;28;20638;-85
2022/04/16 09:15:24;;;;;;;4.03;3.03;;;;;;;;;;5069047;28;20228;-84
2022/04/16 09:18:07;;;;;;;3.23;2.83;;;6.40;99.90;;;;;;5069171;28;20289;-85
2022/04/16 09:20:37;;;;;;;5.47;4.10;;;6.90;99.90;;;;;;5068730;28;20179;-85
2022/04/16 09:23:24;;;;;;;4.00;2.70;;;6.90;99.90;;;;;;5082374;28;20286;-85
2022/04/16 09:25:50;;;;;;;4.87;3.23;;;;;;;;;;5085779;28;20179;-85
2022/04/16 09:28:18;;;;;;;5.03;3.80;;;7.10;99.90;;;;;;5073228;28;20187;-84
2022/04/16 09:30:58;;;;;;;5.13;3.47;;;7.20;99.90;;;;;;5071127;28;20220;-83
2022/04/16 09:33:24;;;;;;;5.23;2.90;;;;;;;;;;5089957;28;20170;-83
2022/04/16 09:35:55;;;;;;;2.73;2.53;;;7.70;99.90;;;;;;5079976;28;20262;-83
2022/04/16 09:38:21;;;;;;;5.80;3.03;;;;;;;;;;5082275;28;20256;-82
2022/04/16 09:40:48;;;;;;;4.13;3.30;;;;;;;;;;5065485;28;20189;-86
2022/04/16 09:43:14;;;;;;;6.10;3.57;;;;;;;;;;5090064;28;20181;-83
2022/04/16 09:45:40;;;;;;;4.67;2.70;;;7.10;99.90;;;;;;5090351;28;20186;-82
2022/04/16 09:48:11;;;;;;;3.63;3.00;;;7.20;99.90;;;;;;5053075;28;20186;-84
2022/04/16 09:50:38;;;;;;;12.43;6.70;;;7.10;99.90;;;;;;5063663;28;20201;-85
2022/04/16 09:53:06;;;;;;;17.83;8.07;;;7.40;99.90;;;;;;5070843;28;20183;-85
2022/04/16 09:55:32;;;;;;;34.27;18.30;;;;;;;;;;5089311;28;20175;-87
2022/04/16 09:58:03;;;;;;;8.23;5.43;;;7.70;99.90;;;;;;5066898;28;20206;-85
2022/04/16 10:00:31;;;;;;;14.47;7.27;;;7.60;99.90;;;;;;5083344;28;20194;-84
2022/04/16 10:02:59;;;;;;;4.23;2.97;;;7.10;99.90;;;;;;5078717;28;20274;-87
2022/04/16 10:05:26;;;;;;;10.67;5.40;;;;;;;;;;5067348;28;20249;-86
2022/04/16 10:07:55;;;;;;;7.47;5.03;;;;;;;;;;5082845;28;20174;-85
2022/04/16 10:10:31;;;;;;;9.33;4.40;;;;;;;;;;5070731;28;20185;-85
2022/04/16 10:13:05;;;;;;;12.03;6.00;;;7.30;99.90;;;;;;5076861;28;20269;-85
2022/04/16 10:15:59;;;;;;;5.73;4.17;;;7.10;99.90;;;;;;5086842;28;20187;-87
2022/04/16 10:18:26;;;;;;;4.77;3.30;;;;;;;;;;5081241;28;20758;-84
2022/04/16 10:20:56;;;;;;;4.67;2.83;;;7.90;99.90;;;;;;5083879;28;20217;-86
2022/04/16 10:23:32;;;;;;;3.63;3.17;;;7.80;99.90;;;;;;5084043;28;20293;-85
2022/04/16 10:26:12;;;;;;;5.07;4.33;;;7.60;99.90;;;;;;5064937;28;20181;-87
2022/04/16 10:28:38;;;;;;;4.03;3.17;;;;;;;;;;5087912;28;20190;-86
2022/04/16 10:31:08;;;;;;;4.57;3.30;;;;;;;;;;5082206;28;20271;-86
2022/04/16 10:33:34;;;;;;;4.13;3.67;;;;;;;;;;5059359;28;20198;-87
2022/04/16 10:36:10;;;;;;;3.40;2.80;;;8.30;99.90;;;;;;5065995;28;20190;-86
2022/04/16 10:38:40;;;;;;;5.93;4.10;;;8.70;99.90;;;;;;5071118;28;20210;-86
2022/04/16 10:41:11;;;;;;;3.13;2.83;;;8.60;99.90;;;;;;5066051;28;20191;-84
2022/04/16 10:43:37;;;;;;;3.27;2.47;;;;;;;;;;5077284;28;20199;-86
2022/04/16 10:46:09;;;;;;;3.63;3.00;;;7.80;99.90;;;;;;5072297;28;20258;-86
2022/04/16 10:48:39;;;;;;;5.17;2.40;;;7.90;98.40;;;;;;5067718;28;20659;-86
2022/04/16 10:51:06;;;;;;;4.60;2.60;;;8.00;98.30;;;;;;5086327;28;20639;-86
2022/04/16 10:53:34;;;;;;;6.27;3.27;;;8.10;97.90;;;;;;5088408;28;20202;-85
2022/04/16 10:56:10;;;;;;;3.90;2.73;;;8.50;95.20;;;;;;5067108;28;20206;-87
2022/04/16 10:58:36;;;;;;;5.47;3.30;;;8.80;97.70;;;;;;5068378;28;21683;-85
2022/04/16 11:01:10;;;;;;;4.27;2.47;;;8.50;88.90;;;;;;5100856;28;20181;-85
2022/04/16 11:03:44;;;;;;;3.30;2.07;;;8.10;90.70;;;;;;5092170;28;20259;-87
2022/04/16 11:06:10;;;;;;;5.40;2.53;;;;;;;;;;5092215;28;20694;-85
2022/04/16 11:08:38;;;;;;;3.07;2.50;;;8.10;92.30;;;;;;5083005;28;20191;-85
2022/04/16 11:11:04;;;;;;;4.77;2.43;;;;;;;;;;5088599;28;20746;-89
2022/04/16 11:13:32;;;;;;;5.93;2.97;;;8.30;96.20;;;;;;5097582;28;20273;-85
2022/04/16 11:16:01;;;;;;;6.73;3.17;;;;;;;;;;5096715;28;20183;-86
2022/04/16 11:18:44;;;;;;;3.40;2.83;;;9.00;88.00;;;;;;5057499;28;20234;-87
2022/04/16 11:21:19;;;;;;;4.07;3.20;;;8.70;89.50;;;;;;5074590;28;20231;-86
2022/04/16 11:23:45;;;;;;;6.57;3.13;;;;;;;;;;5096952;28;20174;-86
2022/04/16 11:34:34;;;;;;;4.50;3.00;;;;;;;;;;5091457;28;20181;-86
2022/04/16 11:37:00;;;;;;;6.40;3.40;;;;;;;;;;5105633;28;20236;-84
2022/04/16 11:39:30;;;;;;;4.80;2.70;;;8.20;90.30;;;;;;5084302;28;20297;-86
2022/04/16 11:41:59;;;;;;;6.27;3.63;;;8.50;91.10;;;;;;5090921;28;20181;-85
2022/04/16 11:44:42;;;;;;;3.57;2.40;;;8.90;81.10;;;;;;5066876;28;20281;-87
2022/04/16 11:47:08;;;;;;;5.30;3.23;;;;;;;;;;5060248;28;20215;-85
2022/04/16 11:49:40;;;;;;;5.60;2.60;;;8.10;94.50;;;;;;5057749;28;20194;-87
2022/04/16 11:52:06;;;;;;;2.87;2.57;;;8.20;87.80;;;;;;5077360;28;20663;-86
2022/04/16 11:54:32;;;;;;;4.47;3.20;;;;;;;;;;5058161;28;20191;-85
2022/04/16 11:56:59;;;;;;;4.43;2.70;;;8.30;77.50;;;;;;5075543;28;20175;-86
2022/04/16 11:59:26;;;;;;;4.37;2.37;;;8.20;80.50;;;;;;5093589;28;20213;-86
2022/04/16 12:01:58;;;;;;;5.37;3.07;;;7.90;84.30;;;;;;5095466;28;20217;-89
2022/04/16 12:04:42;;;;;;;2.80;2.40;;;7.70;93.70;;;;;;5057547;28;20203;-86
2022/04/16 12:07:18;;;;;;;5.93;3.00;;;7.80;89.40;;;;;;5091971;28;20178;-86
2022/04/16 12:09:48;;;;;;;2.50;2.20;;;8.20;95.80;;;;;;5087970;28;20203;-86
2022/04/16 12:12:18;;;;;;;6.50;2.83;;;8.90;82.70;;;;;;5086937;28;20232;-87
2022/04/16 12:14:48;;;;;;;3.90;2.70;;;9.30;79.60;;;;;;5061338;28;20769;-86
2022/04/16 12:17:24;;;;;;;3.50;2.37;;;9.00;79.70;;;;;;5058007;28;20183;-87
2022/04/16 12:20:08;;;;;;;6.73;3.03;;;8.80;90.40;;;;;;5075912;28;20229;-86
2022/04/16 12:23:05;;;;;;;5.90;2.63;;;8.70;80.80;;;;;;5076759;28;20183;-90
2022/04/16 12:25:32;;;;;;;4.60;2.80;;;;;;;;;;5096613;28;20198;-85
2022/04/16 12:27:59;;;;;;;2.73;1.90;;;8.20;79.10;;;;;;5063161;28;20194;-87
2022/04/16 12:30:33;;;;;;;3.20;2.40;;;8.20;85.60;;;;;;5095553;28;20174;-87
2022/04/16 12:33:05;;;;;;;4.37;3.03;;;8.90;91.60;;;;;;5067293;28;20495;-85
2022/04/16 12:35:36;;;;;;;5.00;3.07;;;8.70;80.50;;;;;;5057492;28;20183;-89
2022/04/16 12:38:03;;;;;;;5.37;3.40;;;8.50;90.30;;;;;;5076628;28;20400;-88
2022/04/16 12:40:31;;;;;;;4.27;3.10;;;8.60;93.90;;;;;;5067367;28;20171;-84
2022/04/16 12:42:58;;;;;;;2.67;2.43;;;8.00;88.10;;;;;;5068468;28;20632;-86
2022/04/16 12:45:24;;;;;;;5.40;3.63;;;;;;;;;;5095936;28;20692;-87
2022/04/16 12:47:50;;;;;;;5.00;3.27;;;8.10;91.60;;;;;;5090724;28;20175;-88
2022/04/16 12:50:16;;;;;;;3.80;3.00;;;;;;;;;;5086676;28;20666;-87
2022/04/16 12:52:45;;;;;;;3.23;2.27;;;8.30;81.30;;;;;;5065761;28;20654;-89
2022/04/16 12:55:11;;;;;;;3.63;2.83;;;8.10;81.90;;;;;;5057028;28;20179;-86
2022/04/16 12:57:37;;;;;;;6.43;3.27;;;;;;;;;;5084092;28;20191;-88
2022/04/16 13:00:04;;;;;;;7.00;3.83;;;7.90;87.30;;;;;;5068112;28;20184;-87
2022/04/16 13:02:31;;;;;;;6.00;3.23;;;;;;;;;;5090978;28;20186;-86
2022/04/16 13:04:57;;;;;;;4.40;3.10;;;;;;;;;;5090526;28;20179;-87
2022/04/16 13:07:23;;;;;;;6.37;2.87;;;;;;;;;;5087483;28;20694;-86
2022/04/16 13:09:49;;;;;;;4.03;2.73;;;;;;;;;;5082267;28;20218;-86
2022/04/16 13:12:19;;;;;;;7.13;4.27;;;;;;;;;;5067601;28;20185;-87
2022/04/16 13:14:48;;;;;;;5.73;3.30;;;9.40;77.00;;;;;;5067477;28;20193;-86
2022/04/16 13:17:14;;;;;;;3.90;2.53;;;9.70;82.40;;;;;;5085556;28;20171;-88
2022/04/16 13:19:40;;;;;;;3.90;2.07;;;9.40;84.50;;;;;;5066127;28;20917;-88
2022/04/16 13:22:07;;;;;;;4.63;2.40;;;8.80;71.90;;;;;;5086276;28;20205;-89
2022/04/16 13:24:35;;;;;;;4.10;3.00;;;;;;;;;;5068405;28;20244;-87
2022/04/16 13:27:03;;;;;;;9.77;4.27;;;;;;;;;;5086616;28;20195;-87
2022/04/16 13:29:29;;;;;;;11.20;5.07;;;;;;;;;;5080262;28;20190;-86
2022/04/16 13:31:56;;;;;;;5.47;3.27;;;;;;;;;;5085902;28;20174;-86
2022/04/16 13:34:22;;;;;;;3.73;2.93;;;;;;;;;;5087923;28;20179;-85
2022/04/16 13:36:48;;;;;;;3.20;2.20;;;;;;;;;;5082967;28;20186;-87
2022/04/16 13:41:59;;;;;;;3.27;2.83;;;;;;;;;;5105594;28;20181;-87
2022/04/16 13:44:25;;;;;;;5.13;3.07;;;8.70;79.70;;;;;;5050132;28;20191;-88
2022/04/16 13:46:51;;;;;;;3.60;2.30;;;;;;;;;;5076267;28;20182;-87
2022/04/16 13:49:18;;;;;;;3.97;2.67;;;;;;;;;;5100729;28;20261;-88
2022/04/16 13:51:44;;;;;;;7.63;3.13;;;;;;;;;;5060691;28;20191;-87
2022/04/16 13:54:11;;;;;;;4.93;3.37;;;;;;;;;;5088373;28;20252;-88
2022/04/16 13:56:39;;;;;;;2.83;2.57;;;;;;;;;;5056893;28;20183;-87
2022/04/16 13:59:06;;;;;;;3.83;3.07;;;;;;;;;;5073753;28;20249;-87
2022/04/16 14:01:33;;;;;;;4.80;3.13;;;7.90;76.50;;;;;;5080435;28;20234;-88
2022/04/16 14:04:01;;;;;;;10.60;5.33;;;7.90;83.80;;;;;;5088235;28;20181;-86
2022/04/16 14:06:29;;;;;;;10.00;6.10;;;;;;;;;;5090666;28;20205;-88
2022/04/16 14:08:55;;;;;;;3.87;2.83;;;;;;;;;;5097499;28;20186;-88
2022/04/16 14:11:21;;;;;;;4.60;3.20;;;7.60;97.90;;;;;;5077383;28;20265;-83
2022/04/16 14:13:47;;;;;;;5.33;2.70;;;7.40;98.00;;;;;;5075670;28;20198;-83
2022/04/16 14:16:14;;;;;;;4.60;2.93;;;;;;;;;;5076710;28;20170;-86
2022/04/16 14:18:40;;;;;;;7.77;3.83;;;;;;;;;;5086979;28;20233;-86
2022/04/16 14:21:11;;;;;;;3.30;3.00;;;7.60;98.50;;;;;;5093807;28;20186;-86
2022/04/16 14:23:37;;;;;;;3.07;2.53;;;7.40;96.00;;;;;;5061192;28;20179;-87
2022/04/16 14:26:04;;;;;;;3.80;3.07;;;7.30;96.80;;;;;;5067327;28;20266;-85
2022/04/16 14:28:32;;;;;;;5.00;3.60;;;;;;;;;;5071992;28;20237;-86
2022/04/16 14:30:58;;;;;;;5.97;4.60;;;;;;;;;;5070092;28;20175;-87